Time;durP1;ratioP1;P1;durP2;ratioP2;P2;SDS_P1;SDS_P2;PMS_P1;PMS_P2;Temp;Humidity;BMP_temperature;BMP_pressure;BME280_temperature;BME280_humidity;BME280_pressure;Samples;Min_cycle;Max_cycle;Signal;HPM_P1;HPM_P2
2023/08/14 00:00:59;;;;;;;2.65;1.52;;;16.30;99.90;;;;;;5072946;28;20048;-67
2023/08/14 00:03:25;;;;;;;4.05;1.52;;;16.30;99.90;;;;;;5083269;28;20044;-67
2023/08/14 00:05:50;;;;;;;5.40;1.98;;;16.30;99.90;;;;;;5081412;28;20332;-67
2023/08/14 00:08:16;;;;;;;2.60;1.48;;;16.30;99.90;;;;;;5083323;28;20055;-67
2023/08/14 00:10:42;;;;;;;4.78;1.55;;;16.30;99.90;;;;;;5077408;28;20490;-67
2023/08/14 00:13:07;;;;;;;2.65;1.77;;;16.30;99.90;;;;;;5071173;28;20045;-67
2023/08/14 00:15:33;;;;;;;4.88;1.90;;;16.30;99.90;;;;;;5077686;28;20040;-67
2023/08/14 00:17:59;;;;;;;2.78;1.67;;;16.20;99.90;;;;;;5079057;28;20051;-67
2023/08/14 00:20:24;;;;;;;4.35;2.00;;;16.20;99.90;;;;;;5079153;28;20513;-67
2023/08/14 00:22:50;;;;;;;3.13;1.83;;;16.20;99.90;;;;;;5074386;28;20041;-67
2023/08/14 00:25:16;;;;;;;2.85;1.85;;;16.20;99.90;;;;;;5058608;28;20563;-67
2023/08/14 00:27:41;;;;;;;4.53;2.08;;;16.20;99.90;;;;;;5075816;28;20510;-67
2023/08/14 00:30:07;;;;;;;4.40;1.80;;;16.20;99.90;;;;;;5089861;28;20064;-67
2023/08/14 00:32:33;;;;;;;5.57;2.08;;;16.20;99.90;;;;;;5072481;28;20098;-67
2023/08/14 00:34:59;;;;;;;3.75;2.08;;;16.20;99.90;;;;;;5081584;28;20055;-67
2023/08/14 00:37:43;;;;;;;5.88;2.33;;;16.20;99.90;;;;;;5079487;28;20457;-67
2023/08/14 00:40:10;;;;;;;2.67;1.92;;;16.20;99.90;;;;;;5073678;28;20086;-67
2023/08/14 00:42:42;;;;;;;5.75;2.28;;;16.20;99.90;;;;;;5081990;28;20041;-67
2023/08/14 00:45:09;;;;;;;4.25;1.70;;;16.20;99.90;;;;;;5081579;28;20482;-67
2023/08/14 00:47:39;;;;;;;3.90;1.95;;;16.20;99.90;;;;;;5083270;28;20040;-67
2023/08/14 00:50:09;;;;;;;3.88;1.88;;;16.20;99.90;;;;;;5079306;28;20285;-66
2023/08/14 00:52:38;;;;;;;3.28;1.70;;;16.20;99.90;;;;;;5077357;28;20063;-67
2023/08/14 00:55:08;;;;;;;3.83;1.90;;;16.20;99.90;;;;;;5079346;28;20070;-67
2023/08/14 00:57:34;;;;;;;4.13;2.25;;;16.20;99.90;;;;;;5072228;28;20068;-67
2023/08/14 01:00:05;;;;;;;3.22;1.80;;;16.10;99.90;;;;;;5076157;28;20266;-67
2023/08/14 01:02:30;;;;;;;2.78;1.83;;;16.10;99.90;;;;;;5087527;28;20048;-67
2023/08/14 01:04:56;;;;;;;3.92;2.20;;;16.10;99.90;;;;;;5079864;28;20044;-67
2023/08/14 01:07:24;;;;;;;3.97;2.10;;;16.10;99.90;;;;;;5074218;28;20067;-67
2023/08/14 01:09:50;;;;;;;3.72;2.05;;;16.10;99.90;;;;;;5076288;28;20413;-66
2023/08/14 01:12:30;;;;;;;3.38;1.83;;;16.10;99.90;;;;;;5072380;28;20028;-67
2023/08/14 01:15:03;;;;;;;3.47;2.00;;;16.10;99.90;;;;;;5076110;28;20051;-67
2023/08/14 01:17:33;;;;;;;4.57;1.90;;;16.00;99.90;;;;;;5074873;28;20052;-67
2023/08/14 01:20:00;;;;;;;3.17;2.00;;;16.00;99.90;;;;;;5081247;28;20323;-67
2023/08/14 01:22:48;;;;;;;4.47;1.83;;;16.00;99.90;;;;;;5074748;28;20394;-67
2023/08/14 01:25:25;;;;;;;3.28;2.05;;;16.00;99.90;;;;;;5076353;28;20054;-67
2023/08/14 01:27:53;;;;;;;3.20;1.90;;;16.00;99.90;;;;;;5074625;28;20040;-67
2023/08/14 01:30:22;;;;;;;5.63;2.10;;;15.90;99.90;;;;;;5079277;22;20139;-70
2023/08/14 01:32:48;;;;;;;4.47;2.33;;;15.90;99.90;;;;;;5023714;28;20060;-73
2023/08/14 01:35:15;;;;;;;;;;;15.90;99.90;;;;;;5027240;28;20041;-72
2023/08/14 01:37:56;;;;;;;6.32;2.40;;;15.90;99.90;;;;;;5022372;28;19917;-72
2023/08/14 01:40:45;;;;;;;4.93;2.35;;;15.90;99.90;;;;;;5022741;28;20037;-72
2023/08/14 01:43:18;;;;;;;4.15;2.25;;;15.90;99.90;;;;;;5024630;28;20041;-72
2023/08/14 01:45:43;;;;;;;5.15;2.25;;;15.90;99.90;;;;;;5028513;28;20049;-72
2023/08/14 01:48:11;;;;;;;3.97;2.65;;;15.90;99.90;;;;;;5023593;28;20048;-72
2023/08/14 01:50:41;;;;;;;4.10;2.03;;;15.90;99.90;;;;;;5024941;28;20073;-72
2023/08/14 01:53:07;;;;;;;6.18;2.47;;;15.90;99.90;;;;;;5052815;28;20037;-72
2023/08/14 01:55:33;;;;;;;3.72;2.33;;;15.90;99.90;;;;;;5049327;28;20076;-72
2023/08/14 01:57:58;;;;;;;6.07;2.45;;;15.80;99.90;;;;;;5025018;28;20077;-72
2023/08/14 02:00:26;;;;;;;4.65;2.33;;;15.90;99.90;;;;;;5022181;28;20076;-73
2023/08/14 02:02:53;;;;;;;5.00;2.35;;;15.80;99.90;;;;;;5024592;28;20064;-72
2023/08/14 02:05:18;;;;;;;4.35;2.45;;;15.80;99.90;;;;;;5023451;28;20052;-72
2023/08/14 02:07:44;;;;;;;4.85;2.42;;;15.80;99.90;;;;;;5025719;28;20491;-72
2023/08/14 02:10:10;;;;;;;4.97;2.35;;;15.80;99.90;;;;;;5026229;28;20519;-73
2023/08/14 02:12:35;;;;;;;5.18;2.35;;;15.80;99.90;;;;;;5029135;28;20383;-72
2023/08/14 02:15:01;;;;;;;7.63;2.83;;;15.80;99.90;;;;;;5024987;28;20053;-72
2023/08/14 02:17:27;;;;;;;4.63;2.30;;;15.80;99.90;;;;;;5028857;28;20053;-72
2023/08/14 02:19:54;;;;;;;4.70;2.65;;;15.80;99.90;;;;;;5024412;28;20107;-72
2023/08/14 02:22:19;;;;;;;6.10;2.88;;;15.80;99.90;;;;;;5025488;28;20041;-72
2023/08/14 02:24:45;;;;;;;6.80;2.90;;;15.80;99.90;;;;;;5024092;28;20037;-72
2023/08/14 02:27:11;;;;;;;5.78;3.22;;;15.80;99.90;;;;;;5023987;28;20037;-72
2023/08/14 02:29:36;;;;;;;6.65;3.55;;;15.80;99.90;;;;;;5024474;28;20096;-72
2023/08/14 02:32:03;;;;;;;8.18;3.08;;;15.80;99.90;;;;;;5022243;28;20041;-72
2023/08/14 02:34:49;;;;;;;6.22;2.95;;;15.80;99.90;;;;;;5023558;28;20056;-72
2023/08/14 02:37:16;;;;;;;3.57;2.10;;;15.80;99.90;;;;;;5026142;28;20498;-72
2023/08/14 02:39:42;;;;;;;3.97;2.50;;;15.80;99.90;;;;;;5026228;28;20106;-72
2023/08/14 02:42:09;;;;;;;6.07;3.17;;;15.80;99.90;;;;;;5025272;28;20041;-73
2023/08/14 02:44:35;;;;;;;5.93;3.00;;;15.80;99.90;;;;;;5030745;28;20124;-72
2023/08/14 02:47:01;;;;;;;;;;;15.80;99.90;;;;;;5027720;28;20554;-72
2023/08/14 02:49:26;;;;;;;5.93;2.88;;;15.80;99.90;;;;;;5026793;28;19921;-72
2023/08/14 02:51:52;;;;;;;7.47;3.15;;;15.80;99.90;;;;;;5024940;28;20037;-72
2023/08/14 02:54:18;;;;;;;6.90;2.80;;;15.80;99.90;;;;;;5029354;28;20042;-72
2023/08/14 02:56:46;;;;;;;7.85;2.65;;;15.80;99.90;;;;;;5027732;28;20042;-73
2023/08/14 02:59:11;;;;;;;6.10;3.28;;;15.80;99.90;;;;;;5027642;28;20091;-72
2023/08/14 03:01:37;;;;;;;7.68;3.15;;;15.80;99.90;;;;;;5027509;28;20049;-72
2023/08/14 03:04:03;;;;;;;4.70;2.70;;;15.70;99.90;;;;;;5027738;28;20037;-72
2023/08/14 03:06:32;;;;;;;4.72;3.05;;;15.70;99.90;;;;;;5023702;28;20450;-73
2023/08/14 03:09:01;;;;;;;4.65;2.90;;;15.70;99.90;;;;;;5010532;28;20568;-72
2023/08/14 03:11:29;;;;;;;6.97;3.00;;;15.70;99.90;;;;;;5028088;28;20037;-73
2023/08/14 03:13:55;;;;;;;5.35;2.90;;;15.60;99.90;;;;;;5025311;28;20041;-72
2023/08/14 03:16:23;;;;;;;4.43;2.80;;;15.60;99.90;;;;;;5021159;28;20475;-72
2023/08/14 03:18:51;;;;;;;7.88;3.40;;;15.60;99.90;;;;;;5010405;28;20048;-72
2023/08/14 03:21:17;;;;;;;7.38;4.15;;;15.60;99.90;;;;;;5023855;28;20034;-73
2023/08/14 03:23:43;;;;;;;4.72;2.95;;;15.60;99.90;;;;;;5026378;28;20048;-73
2023/08/14 03:26:10;;;;;;;8.10;3.63;;;15.50;99.90;;;;;;5007998;28;20067;-72
2023/08/14 03:28:36;;;;;;;7.32;3.45;;;15.50;99.90;;;;;;5025671;28;20061;-72
2023/08/14 03:31:01;;;;;;;10.38;4.82;;;15.50;99.90;;;;;;5009074;28;20193;-72
2023/08/14 03:33:29;;;;;;;4.80;2.90;;;15.50;99.90;;;;;;5024080;28;20092;-72
2023/08/14 03:35:55;;;;;;;6.10;3.58;;;15.50;99.90;;;;;;5023899;28;20045;-72
2023/08/14 03:38:21;;;;;;;7.35;4.10;;;15.50;99.90;;;;;;5027618;28;20042;-73
2023/08/14 03:40:47;;;;;;;;;;;15.50;99.90;;;;;;5023012;28;20257;-72
2023/08/14 03:43:12;;;;;;;6.38;3.45;;;15.50;99.90;;;;;;5047990;28;19925;-72
2023/08/14 03:45:38;;;;;;;4.85;3.63;;;15.40;99.90;;;;;;5026926;28;20073;-72
2023/08/14 03:48:04;;;;;;;8.05;4.20;;;15.40;99.90;;;;;;5027110;28;20045;-73
2023/08/14 03:50:30;;;;;;;8.50;4.13;;;15.40;99.90;;;;;;5025234;28;20552;-73
2023/08/14 03:52:56;;;;;;;7.00;4.00;;;15.40;99.90;;;;;;5026391;28;20049;-72
2023/08/14 03:55:21;;;;;;;5.80;3.65;;;15.40;99.90;;;;;;5025120;28;20041;-72
2023/08/14 03:57:47;;;;;;;9.23;3.97;;;15.40;99.90;;;;;;5027527;28;20041;-72
2023/08/14 04:00:13;;;;;;;7.45;4.45;;;15.40;99.90;;;;;;5023462;28;20044;-72
2023/08/14 04:02:39;;;;;;;7.85;4.10;;;15.30;99.90;;;;;;5012928;28;20431;-72
2023/08/14 04:05:05;;;;;;;10.95;4.68;;;15.40;99.90;;;;;;5028189;28;20151;-73
2023/08/14 04:07:31;;;;;;;7.32;4.22;;;15.40;99.90;;;;;;5024074;28;20306;-73
2023/08/14 04:09:57;;;;;;;6.65;4.65;;;15.40;99.90;;;;;;5028581;28;20140;-72
2023/08/14 04:12:22;;;;;;;9.20;5.40;;;15.40;99.90;;;;;;5009761;28;20450;-72
2023/08/14 04:14:52;;;;;;;7.55;4.75;;;15.40;99.90;;;;;;5025573;28;20098;-73
2023/08/14 04:17:17;;;;;;;9.88;4.15;;;15.30;99.90;;;;;;5025430;28;20060;-72
2023/08/14 04:19:43;;;;;;;6.32;4.55;;;15.30;99.90;;;;;;5025927;28;20037;-72
2023/08/14 04:22:08;;;;;;;6.47;4.20;;;15.30;99.90;;;;;;5024985;28;20041;-73
2023/08/14 04:24:34;;;;;;;14.75;4.90;;;15.30;99.90;;;;;;5022059;28;20044;-72
2023/08/14 04:27:00;;;;;;;8.82;5.25;;;15.30;99.90;;;;;;5025891;28;20179;-72
2023/08/14 04:29:25;;;;;;;7.45;4.22;;;15.30;99.90;;;;;;5025620;28;20034;-72
2023/08/14 04:31:51;;;;;;;6.97;4.75;;;15.30;99.90;;;;;;5024154;28;20209;-72
2023/08/14 04:34:17;;;;;;;7.60;4.28;;;15.30;99.90;;;;;;5025042;28;20072;-72
2023/08/14 04:36:43;;;;;;;8.45;4.78;;;15.30;99.90;;;;;;5023797;28;20554;-73
2023/08/14 04:39:09;;;;;;;8.82;4.45;;;15.30;99.90;;;;;;5028348;28;20037;-73
2023/08/14 04:41:34;;;;;;;8.13;4.75;;;15.30;99.90;;;;;;5026425;28;20037;-73
2023/08/14 04:44:01;;;;;;;7.13;4.80;;;15.30;99.90;;;;;;5025001;28;20041;-72
2023/08/14 04:46:33;;;;;;;8.57;4.57;;;15.30;99.90;;;;;;5026653;28;20136;-72
2023/08/14 04:49:00;;;;;;;10.02;4.20;;;15.30;99.90;;;;;;5027065;28;20128;-73
2023/08/14 04:51:26;;;;;;;6.78;4.63;;;15.30;99.90;;;;;;5019013;28;20121;-72
2023/08/14 04:53:53;;;;;;;7.03;4.45;;;15.30;99.90;;;;;;5025017;28;20052;-73
2023/08/14 04:56:19;;;;;;;10.38;4.53;;;15.40;99.90;;;;;;5024131;28;20046;-73
2023/08/14 04:58:45;;;;;;;11.98;5.13;;;15.40;99.90;;;;;;5029109;28;20042;-73
2023/08/14 05:01:10;;;;;;;7.13;4.60;;;15.40;99.90;;;;;;5023653;28;20139;-72
2023/08/14 05:03:38;;;;;;;7.47;4.28;;;15.40;99.90;;;;;;5025764;28;20050;-73
2023/08/14 05:06:04;;;;;;;11.00;4.65;;;15.40;99.90;;;;;;5030308;28;20083;-72
2023/08/14 05:08:31;;;;;;;9.73;4.93;;;15.40;99.90;;;;;;5025025;28;20507;-73
2023/08/14 05:10:56;;;;;;;10.10;4.10;;;15.40;99.90;;;;;;5028400;28;20072;-73
2023/08/14 05:13:22;;;;;;;5.22;3.78;;;15.40;99.90;;;;;;5025112;28;20525;-72
2023/08/14 05:15:49;;;;;;;8.60;4.65;;;15.50;99.90;;;;;;5025372;28;20449;-73
2023/08/14 05:18:18;;;;;;;6.15;4.15;;;15.50;99.90;;;;;;5022688;28;20441;-72
2023/08/14 05:20:48;;;;;;;8.75;4.82;;;15.50;99.90;;;;;;5023674;28;20053;-72
2023/08/14 05:23:14;;;;;;;8.70;4.75;;;15.50;99.90;;;;;;5026300;28;20506;-71
2023/08/14 05:25:44;;;;;;;;;;;15.50;99.90;;;;;;5024990;28;20581;-72
2023/08/14 05:28:10;;;;;;;8.43;4.88;;;15.50;99.90;;;;;;5050133;28;20004;-71
2023/08/14 05:30:35;;;;;;;6.10;3.85;;;15.60;99.90;;;;;;5025144;28;20045;-71
2023/08/14 05:33:02;;;;;;;6.68;4.47;;;15.60;99.90;;;;;;5026166;28;20072;-71
2023/08/14 05:35:29;;;;;;;7.65;4.57;;;15.60;99.90;;;;;;5024211;28;20092;-71
2023/08/14 05:37:56;;;;;;;11.02;4.65;;;15.60;99.90;;;;;;5021495;28;20120;-71
2023/08/14 05:40:23;;;;;;;6.60;4.28;;;15.70;99.90;;;;;;5026696;28;20116;-71
2023/08/14 05:43:04;;;;;;;;;;;15.80;99.90;;;;;;5024659;28;20037;-71
2023/08/14 05:45:38;;;;;;;9.52;4.22;;;15.70;99.90;;;;;;5049870;28;19996;-71
2023/08/14 05:48:05;;;;;;;7.32;4.47;;;15.80;99.90;;;;;;5030514;28;20037;-71
2023/08/14 05:50:32;;;;;;;10.05;4.47;;;15.80;99.90;;;;;;5023643;28;20037;-71
2023/08/14 05:53:00;;;;;;;6.95;4.63;;;15.90;99.90;;;;;;5023760;28;20045;-72
2023/08/14 05:55:26;;;;;;;7.30;4.72;;;15.90;99.90;;;;;;5023364;28;20124;-71
2023/08/14 05:57:52;;;;;;;;;;;16.00;99.90;;;;;;5052433;28;20053;-71
2023/08/14 06:00:19;;;;;;;8.20;4.75;;;16.00;99.90;;;;;;5027396;28;19947;-71
2023/08/14 06:02:45;;;;;;;7.35;4.90;;;16.00;99.90;;;;;;5026135;28;20034;-71
2023/08/14 06:05:11;;;;;;;;;;;16.10;99.90;;;;;;5023125;28;20245;-71
2023/08/14 06:07:36;;;;;;;8.98;5.57;;;16.10;99.90;;;;;;5022939;28;19979;-72
2023/08/14 06:10:04;;;;;;;9.63;4.75;;;16.10;99.90;;;;;;5023285;28;20037;-71
2023/08/14 06:12:30;;;;;;;7.47;4.78;;;16.20;99.90;;;;;;5024753;28;20522;-71
2023/08/14 06:14:56;;;;;;;6.95;4.10;;;16.20;99.90;;;;;;5024958;28;20542;-71
2023/08/14 06:17:21;;;;;;;10.10;4.53;;;16.30;99.90;;;;;;5025742;28;20033;-71
2023/08/14 06:19:47;;;;;;;6.93;4.43;;;16.30;99.90;;;;;;5030644;28;20511;-71
2023/08/14 06:22:13;;;;;;;11.98;5.13;;;16.30;99.90;;;;;;5027426;28;20037;-71
2023/08/14 06:24:38;;;;;;;7.15;4.43;;;16.40;99.90;;;;;;5028973;28;20041;-71
2023/08/14 06:27:06;;;;;;;6.65;4.18;;;16.40;99.90;;;;;;5030304;28;20040;-71
2023/08/14 06:29:34;;;;;;;6.68;4.60;;;16.50;99.90;;;;;;5029597;28;20071;-71
2023/08/14 06:32:00;;;;;;;6.88;4.50;;;16.50;99.90;;;;;;5026492;28;20491;-71
2023/08/14 06:34:27;;;;;;;8.82;3.83;;;16.60;99.90;;;;;;5026072;28;20105;-73
2023/08/14 06:36:53;;;;;;;6.35;3.80;;;16.60;99.90;;;;;;5009719;28;20291;-72
2023/08/14 06:39:19;;;;;;;7.68;4.35;;;16.70;99.90;;;;;;5031565;28;20033;-75
2023/08/14 06:41:47;;;;;;;7.78;4.65;;;16.70;99.90;;;;;;5027572;28;21496;-71
2023/08/14 06:44:13;;;;;;;7.35;4.78;;;16.70;99.90;;;;;;5028281;28;20081;-71
2023/08/14 06:46:39;;;;;;;8.13;4.55;;;16.80;99.90;;;;;;5023718;28;20499;-72
2023/08/14 06:49:04;;;;;;;8.43;4.93;;;16.80;99.90;;;;;;5028445;28;20049;-71
2023/08/14 06:51:31;;;;;;;7.63;4.18;;;16.90;99.90;;;;;;5031164;28;20051;-70
2023/08/14 06:53:57;;;;;;;11.00;5.40;;;17.00;99.90;;;;;;5026099;28;20049;-71
2023/08/14 06:56:24;;;;;;;7.55;4.18;;;17.00;99.90;;;;;;5033366;28;20064;-71
2023/08/14 06:58:50;;;;;;;7.65;4.32;;;17.10;99.90;;;;;;5026539;28;20045;-71
2023/08/14 07:01:16;;;;;;;6.57;4.30;;;17.20;99.90;;;;;;5048579;28;20351;-70
2023/08/14 07:03:42;;;;;;;6.28;4.28;;;17.20;99.90;;;;;;5047596;28;20046;-71
2023/08/14 07:06:08;;;;;;;6.28;4.38;;;17.30;99.90;;;;;;5027942;28;20048;-71
2023/08/14 07:08:33;;;;;;;9.57;4.20;;;17.40;99.90;;;;;;5032976;28;20053;-70
2023/08/14 07:10:59;;;;;;;9.65;4.20;;;17.40;99.90;;;;;;5026242;28;20156;-71
2023/08/14 07:13:25;;;;;;;9.80;4.40;;;17.50;99.90;;;;;;5029823;28;20051;-70
2023/08/14 07:15:51;;;;;;;6.55;4.05;;;17.50;99.90;;;;;;5030644;28;20048;-70
2023/08/14 07:18:18;;;;;;;9.40;3.50;;;17.60;99.90;;;;;;5027051;28;20525;-70
2023/08/14 07:20:47;;;;;;;7.75;3.50;;;17.70;99.90;;;;;;5026622;28;20459;-70
2023/08/14 07:23:14;;;;;;;10.43;4.75;;;17.80;99.90;;;;;;5026763;28;20033;-70
2023/08/14 07:25:40;;;;;;;7.15;3.78;;;17.80;99.90;;;;;;5025787;28;20495;-70
2023/08/14 07:28:06;;;;;;;7.20;3.83;;;17.90;99.90;;;;;;5026752;28;20037;-71
2023/08/14 07:30:32;;;;;;;5.28;3.30;;;18.00;99.90;;;;;;5026572;28;20088;-70
2023/08/14 07:35:25;;;;;;;5.32;2.38;;;18.10;99.90;;;;;;5013687;28;20034;-71
2023/08/14 07:37:50;;;;;;;5.45;2.30;;;18.10;99.90;;;;;;4992973;28;20033;-71
2023/08/14 07:40:16;;;;;;;3.75;1.95;;;18.20;99.90;;;;;;4976070;28;20072;-70
2023/08/14 07:42:42;;;;;;;5.20;2.08;;;18.20;99.90;;;;;;4991053;28;20052;-71
2023/08/14 07:45:08;;;;;;;4.82;2.35;;;18.20;99.90;;;;;;4992224;28;20042;-71
2023/08/14 07:47:34;;;;;;;5.82;2.30;;;18.30;99.90;;;;;;4979141;28;20045;-71
2023/08/14 07:50:00;;;;;;;2.40;1.58;;;18.30;99.90;;;;;;4991999;28;20052;-71
2023/08/14 07:52:27;;;;;;;5.63;2.35;;;18.30;99.90;;;;;;4994394;28;20044;-70
2023/08/14 07:54:53;;;;;;;5.55;2.03;;;18.40;99.90;;;;;;4994889;28;20472;-71
2023/08/14 07:57:20;;;;;;;2.70;1.70;;;18.40;99.90;;;;;;4979747;28;20038;-70
2023/08/14 07:59:46;;;;;;;4.25;2.00;;;18.50;99.90;;;;;;4993168;28;20038;-71
2023/08/14 08:02:11;;;;;;;4.25;2.13;;;18.50;99.90;;;;;;4989030;28;20068;-71
2023/08/14 08:04:37;;;;;;;3.35;2.08;;;18.60;99.90;;;;;;4987922;28;20065;-71
2023/08/14 08:07:03;;;;;;;3.22;2.17;;;18.70;99.90;;;;;;4990958;28;20037;-70
2023/08/14 08:09:29;;;;;;;5.05;1.90;;;18.70;99.90;;;;;;4994766;28;20100;-71
2023/08/14 08:11:56;;;;;;;4.32;1.98;;;18.70;99.90;;;;;;4988082;28;20045;-71
2023/08/14 08:14:21;;;;;;;;;;;18.80;99.90;;;;;;4989988;28;20048;-71
2023/08/14 08:16:48;;;;;;;4.40;1.95;;;18.90;99.90;;;;;;4987719;28;20023;-70
2023/08/14 08:19:15;;;;;;;6.28;2.10;;;18.90;99.90;;;;;;4991706;28;20052;-71
2023/08/14 08:21:41;;;;;;;3.15;1.80;;;19.00;99.90;;;;;;4987994;28;20125;-71
2023/08/14 08:24:07;;;;;;;;;;;19.00;99.90;;;;;;4989327;28;20250;-70
2023/08/14 08:26:34;;;;;;;6.07;2.22;;;19.10;99.90;;;;;;4990784;28;19921;-71
2023/08/14 08:28:59;;;;;;;2.72;1.40;;;19.10;99.90;;;;;;4992135;28;20041;-70
2023/08/14 08:31:25;;;;;;;3.30;1.58;;;19.20;99.90;;;;;;5009220;28;20414;-70
2023/08/14 08:33:51;;;;;;;5.68;1.70;;;19.20;99.90;;;;;;5006335;28;20826;-70
2023/08/14 08:36:19;;;;;;;5.75;1.40;;;19.30;99.90;;;;;;5008762;28;20096;-70
2023/08/14 08:38:45;;;;;;;3.20;1.33;;;19.30;99.90;;;;;;4991043;28;20049;-70
2023/08/14 08:41:21;;;;;;;8.25;1.52;;;19.50;99.90;;;;;;4992000;28;20045;-70
2023/08/14 08:43:50;;;;;;;5.27;1.20;;;19.60;99.90;;;;;;4991899;28;20514;-70
2023/08/14 08:46:19;;;;;;;5.35;1.13;;;19.60;99.90;;;;;;5004610;28;20294;-69
2023/08/14 08:48:48;;;;;;;3.78;1.10;;;19.70;99.90;;;;;;4992614;28;20042;-69
2023/08/14 08:51:14;;;;;;;3.47;0.82;;;19.80;99.90;;;;;;4988807;28;20415;-69
2023/08/14 08:53:41;;;;;;;4.28;1.90;;;19.90;99.90;;;;;;5006702;28;20054;-69
2023/08/14 08:56:06;;;;;;;2.50;1.17;;;20.00;99.90;;;;;;4988310;28;20069;-69
2023/08/14 08:58:32;;;;;;;5.85;1.27;;;20.00;99.90;;;;;;4987020;28;22157;-69
2023/08/14 09:00:59;;;;;;;5.97;1.50;;;20.10;99.90;;;;;;5004823;28;20050;-69
2023/08/14 09:03:25;;;;;;;2.63;1.40;;;20.20;99.90;;;;;;4984230;28;20065;-69
2023/08/14 09:05:51;;;;;;;3.33;1.02;;;20.20;99.90;;;;;;5008817;28;20038;-69
2023/08/14 09:08:18;;;;;;;2.08;0.47;;;20.20;99.90;;;;;;5003598;28;20168;-69
2023/08/14 09:10:44;;;;;;;5.20;1.10;;;20.30;99.90;;;;;;4992211;28;20110;-69
2023/08/14 09:13:10;;;;;;;2.25;0.80;;;20.20;99.90;;;;;;5009128;28;20128;-69
2023/08/14 09:15:41;;;;;;;3.50;1.15;;;20.20;99.90;;;;;;5008816;28;20129;-69
2023/08/14 09:18:06;;;;;;;2.35;0.80;;;20.30;99.90;;;;;;4991635;28;20140;-69
2023/08/14 09:20:32;;;;;;;3.58;1.10;;;20.40;99.90;;;;;;4990778;28;20093;-69
2023/08/14 09:22:59;;;;;;;2.30;0.65;;;20.50;99.90;;;;;;4990314;28;20034;-69
2023/08/14 09:25:25;;;;;;;3.78;1.02;;;20.70;99.90;;;;;;4996583;28;20119;-69
2023/08/14 09:27:54;;;;;;;2.35;0.82;;;20.80;99.90;;;;;;4987766;28;20046;-69
2023/08/14 09:30:23;;;;;;;2.42;0.80;;;20.90;99.90;;;;;;4989947;28;20056;-69
2023/08/14 09:32:49;;;;;;;4.55;1.05;;;21.00;99.90;;;;;;4984437;28;20073;-69
2023/08/14 09:35:15;;;;;;;5.18;1.10;;;21.10;99.90;;;;;;5007909;28;20096;-69
2023/08/14 09:37:41;;;;;;;3.13;1.10;;;21.20;99.90;;;;;;4995858;28;20129;-69
2023/08/14 09:40:17;;;;;;;4.53;1.20;;;21.40;99.90;;;;;;4990900;28;20392;-69
2023/08/14 09:42:47;;;;;;;3.40;1.40;;;21.50;99.90;;;;;;5006374;28;20455;-69
2023/08/14 09:45:15;;;;;;;5.40;1.30;;;21.70;99.90;;;;;;4991393;28;20073;-70
2023/08/14 09:47:42;;;;;;;2.67;0.90;;;21.90;99.90;;;;;;4990630;28;20058;-69
2023/08/14 09:50:09;;;;;;;3.30;0.90;;;22.00;99.90;;;;;;5008502;28;20050;-69
2023/08/14 09:52:34;;;;;;;2.10;0.70;;;22.00;99.90;;;;;;4980070;28;20129;-69
2023/08/14 09:55:01;;;;;;;;;;;22.00;99.90;;;;;;4993559;28;20133;-69
2023/08/14 09:57:27;;;;;;;3.75;0.75;;;22.00;99.90;;;;;;5007921;28;20402;-69
2023/08/14 09:59:52;;;;;;;;;;;22.00;99.90;;;;;;5013529;28;20038;-69
2023/08/14 10:02:24;;;;;;;2.33;0.93;;;22.00;99.90;;;;;;4987218;28;19921;-69
2023/08/14 10:04:51;;;;;;;2.63;0.70;;;21.90;99.90;;;;;;5007546;28;20268;-69
2023/08/14 10:07:18;;;;;;;2.38;0.50;;;22.00;99.90;;;;;;4985004;28;20439;-69
2023/08/14 10:09:47;;;;;;;1.83;0.80;;;21.90;99.90;;;;;;5008954;28;20116;-69
2023/08/14 10:12:13;;;;;;;2.03;0.60;;;22.00;99.90;;;;;;5004996;28;20041;-69
2023/08/14 10:14:41;;;;;;;;;;;21.90;99.90;;;;;;4991518;28;20041;-69
2023/08/14 10:17:18;;;;;;;2.17;0.63;;;22.00;99.90;;;;;;4985972;28;19960;-69
2023/08/14 10:19:47;;;;;;;2.63;0.70;;;22.10;99.90;;;;;;4989383;28;20129;-69
2023/08/14 10:22:14;;;;;;;3.63;0.77;;;22.20;99.90;;;;;;5006913;28;20064;-69
2023/08/14 10:24:40;;;;;;;1.58;0.55;;;22.30;99.90;;;;;;4988118;28;20052;-69
2023/08/14 10:27:07;;;;;;;2.20;0.80;;;22.30;99.90;;;;;;5003776;28;20044;-69
2023/08/14 10:29:34;;;;;;;5.03;0.80;;;22.40;99.90;;;;;;4990834;28;20046;-69
2023/08/14 10:32:01;;;;;;;1.45;0.95;;;22.40;99.90;;;;;;5004958;28;20037;-69
2023/08/14 10:34:30;;;;;;;2.47;0.60;;;22.40;99.90;;;;;;5006544;28;20046;-69
2023/08/14 10:36:56;;;;;;;1.52;0.70;;;22.40;99.90;;;;;;4987421;28;20460;-69
2023/08/14 10:39:31;;;;;;;;;;;22.50;99.90;;;;;;4982901;28;20069;-69
2023/08/14 10:41:59;;;;;;;3.53;0.95;;;22.50;99.90;;;;;;5007113;28;20016;-69
2023/08/14 10:44:33;;;;;;;2.67;1.08;;;22.70;99.90;;;;;;4974458;28;20041;-69
2023/08/14 10:47:10;;;;;;;1.73;0.65;;;22.80;99.90;;;;;;5012713;28;20057;-69
2023/08/14 10:49:48;;;;;;;1.35;0.80;;;23.00;99.90;;;;;;5003516;28;20052;-69
2023/08/14 10:52:15;;;;;;;3.30;0.73;;;23.00;99.90;;;;;;4989117;28;20137;-69
2023/08/14 10:54:43;;;;;;;1.83;0.80;;;23.10;99.90;;;;;;4989045;28;20084;-69
2023/08/14 10:57:13;;;;;;;2.47;0.77;;;23.20;99.90;;;;;;5002293;28;20044;-69
2023/08/14 10:59:43;;;;;;;2.92;0.85;;;23.20;99.90;;;;;;5005087;28;20512;-69
2023/08/14 11:02:16;;;;;;;3.63;0.70;;;23.30;99.90;;;;;;4999960;28;20045;-69
2023/08/14 11:04:58;;;;;;;1.55;0.82;;;23.30;99.90;;;;;;4991798;28;20042;-69
2023/08/14 11:07:32;;;;;;;4.50;0.80;;;23.30;99.90;;;;;;4987348;28;20033;-69
2023/08/14 11:09:58;;;;;;;3.88;0.85;;;23.40;99.90;;;;;;4995999;28;20411;-69
2023/08/14 11:12:24;;;;;;;;;;;23.50;99.90;;;;;;4991120;28;20045;-69
2023/08/14 11:14:50;;;;;;;1.43;0.70;;;23.60;99.90;;;;;;5006477;28;20426;-69
2023/08/14 11:17:16;;;;;;;;;;;23.70;99.90;;;;;;4991594;28;20180;-69
2023/08/14 11:19:42;;;;;;;1.52;0.60;;;23.80;99.90;;;;;;4992946;28;19921;-69
2023/08/14 11:22:08;;;;;;;;;;;23.80;99.90;;;;;;4998862;28;20120;-69
2023/08/14 11:24:34;;;;;;;2.63;0.70;;;23.80;99.90;;;;;;5010656;28;19917;-69
2023/08/14 11:27:00;;;;;;;;;;;23.90;99.90;;;;;;5008805;28;20164;-69
2023/08/14 11:29:26;;;;;;;3.17;1.17;;;24.00;99.90;;;;;;4997675;28;19940;-69
2023/08/14 11:31:51;;;;;;;;;;;24.00;99.90;;;;;;4993743;28;20049;-69
2023/08/14 11:34:20;;;;;;;2.75;1.00;;;24.00;99.90;;;;;;4987260;28;20021;-69
2023/08/14 11:36:54;;;;;;;2.90;0.70;;;24.10;99.90;;;;;;5006900;28;20056;-69
2023/08/14 11:39:20;;;;;;;2.67;0.95;;;24.30;99.90;;;;;;5005058;28;20050;-69
2023/08/14 11:41:45;;;;;;;1.17;0.63;;;24.30;99.90;;;;;;4978516;28;20045;-69
2023/08/14 11:44:11;;;;;;;;;;;24.40;99.90;;;;;;5008305;28;20046;-69
2023/08/14 11:46:38;;;;;;;3.28;0.70;;;24.50;99.90;;;;;;5002804;28;19987;-69
2023/08/14 11:49:04;;;;;;;3.67;0.80;;;24.50;99.90;;;;;;4998641;28;20586;-70
2023/08/14 11:51:31;;;;;;;5.95;0.93;;;24.60;99.90;;;;;;4992448;28;20081;-69
2023/08/14 11:53:59;;;;;;;2.47;0.70;;;24.60;99.90;;;;;;4991410;28;20045;-69
2023/08/14 11:56:25;;;;;;;2.28;0.60;;;24.50;99.90;;;;;;4991050;28;20045;-69
2023/08/14 11:58:52;;;;;;;1.38;0.80;;;24.50;99.90;;;;;;4982456;28;20042;-69
2023/08/14 12:01:19;;;;;;;1.55;0.73;;;24.50;99.90;;;;;;5020720;28;20037;-69
2023/08/14 12:03:45;;;;;;;2.55;0.70;;;24.50;99.90;;;;;;4974844;28;20174;-69
2023/08/14 12:06:11;;;;;;;2.30;0.88;;;24.60;99.90;;;;;;4991070;28;20164;-69
2023/08/14 12:08:42;;;;;;;2.90;1.20;;;24.70;99.90;;;;;;5012155;28;20128;-69
2023/08/14 12:11:15;;;;;;;3.92;1.27;;;24.80;99.90;;;;;;4989968;28;20037;-69
2023/08/14 12:13:40;;;;;;;3.95;1.00;;;24.80;99.90;;;;;;5009624;28;20045;-69
2023/08/14 12:16:07;;;;;;;4.68;0.95;;;24.80;99.90;;;;;;4991195;28;20041;-69
2023/08/14 12:18:34;;;;;;;3.35;0.82;;;24.80;99.90;;;;;;5003815;28;20132;-69
2023/08/14 12:20:59;;;;;;;3.35;1.20;;;24.90;99.90;;;;;;4990283;28;20040;-69
2023/08/14 12:23:25;;;;;;;7.68;1.13;;;25.10;99.90;;;;;;5009150;28;20034;-69
2023/08/14 12:25:52;;;;;;;4.55;0.90;;;25.20;99.90;;;;;;4991139;28;20133;-69
2023/08/14 12:28:19;;;;;;;5.30;1.10;;;25.10;99.90;;;;;;4995807;28;20042;-69
2023/08/14 12:30:46;;;;;;;3.78;1.02;;;25.10;99.90;;;;;;4980026;28;20058;-69
2023/08/14 12:33:15;;;;;;;2.72;0.93;;;24.90;99.90;;;;;;4971952;28;20400;-69
2023/08/14 12:35:41;;;;;;;1.42;0.75;;;24.80;99.90;;;;;;4991996;28;20122;-69
2023/08/14 12:38:07;;;;;;;3.47;1.00;;;24.70;99.90;;;;;;4993301;28;20515;-69
2023/08/14 12:40:34;;;;;;;3.50;1.10;;;24.70;99.90;;;;;;4985435;28;20337;-69
2023/08/14 12:43:00;;;;;;;3.05;1.10;;;24.70;99.90;;;;;;4991368;28;20038;-69
2023/08/14 12:45:25;;;;;;;2.70;1.20;;;24.80;99.90;;;;;;5010858;28;20554;-69
2023/08/14 12:47:51;;;;;;;3.00;1.10;;;25.00;99.90;;;;;;4992231;28;20329;-69
2023/08/14 12:50:17;;;;;;;7.20;1.33;;;25.20;99.90;;;;;;4987502;28;20392;-69
2023/08/14 12:52:43;;;;;;;4.00;1.25;;;25.30;99.90;;;;;;5010898;28;20042;-69